createdAt,value
2023-01-03T00:01:54.453Z,16.33
2023-01-03T00:04:23.811Z,15.70
2023-01-03T00:06:55.884Z,15.85
2023-01-03T00:09:26.237Z,16.60
2023-01-03T00:12:13.705Z,16.58
2023-01-03T00:14:44.543Z,16.10
2023-01-03T00:17:14.680Z,17.02
2023-01-03T00:19:45.703Z,16.75
2023-01-03T00:22:17.889Z,18.42
2023-01-03T00:24:48.660Z,17.50
2023-01-03T00:27:18.609Z,18.70
2023-01-03T00:29:47.405Z,18.65
2023-01-03T00:32:16.369Z,17.98
2023-01-03T00:34:46.490Z,17.92
2023-01-03T00:37:17.016Z,18.02
2023-01-03T00:39:45.923Z,17.65
2023-01-03T00:42:15.343Z,16.30
2023-01-03T00:44:44.227Z,16.67
2023-01-03T00:47:13.002Z,17.70
2023-01-03T00:49:42.060Z,18.60
2023-01-03T00:52:10.955Z,16.50
2023-01-03T00:54:41.250Z,16.88
2023-01-03T00:57:10.237Z,16.90
2023-01-03T00:59:39.168Z,16.60
2023-01-03T01:02:08.214Z,17.30
2023-01-03T01:04:37.275Z,17.13
2023-01-03T01:07:06.469Z,17.52
2023-01-03T01:09:38.225Z,17.63
2023-01-03T01:12:09.318Z,18.75
2023-01-03T01:14:38.192Z,17.42
2023-01-03T01:17:09.832Z,17.67
2023-01-03T01:19:41.098Z,17.13
2023-01-03T01:22:11.272Z,17.30
2023-01-03T01:24:41.445Z,16.77
2023-01-03T01:27:12.045Z,16.52
2023-01-03T01:29:41.375Z,17.35
2023-01-03T01:32:10.162Z,18.08
2023-01-03T01:34:39.321Z,18.60
2023-01-03T01:37:08.153Z,18.88
2023-01-03T01:39:37.076Z,19.70
2023-01-03T01:42:31.495Z,19.08
2023-01-03T01:45:01.917Z,19.00
2023-01-03T01:47:41.631Z,18.10
2023-01-03T01:50:24.812Z,17.27
2023-01-03T01:53:05.915Z,17.00
2023-01-03T01:55:42.271Z,15.48
2023-01-03T01:58:13.639Z,14.93
2023-01-03T02:00:45.344Z,15.20
2023-01-03T02:03:15.000Z,15.27
2023-01-03T02:05:50.464Z,14.98
2023-01-03T02:08:19.485Z,15.13
2023-01-03T02:11:07.442Z,15.50
2023-01-03T02:13:50.258Z,13.93
2023-01-03T02:16:50.569Z,14.70
2023-01-03T02:20:00.482Z,13.35
2023-01-03T02:23:03.764Z,14.63
2023-01-03T02:26:16.032Z,13.52
2023-01-03T02:29:35.279Z,11.88
2023-01-03T02:32:14.817Z,11.40
2023-01-03T02:34:56.901Z,12.18
2023-01-03T02:37:38.445Z,13.40
2023-01-03T02:40:18.866Z,12.95
2023-01-03T02:43:02.226Z,11.98
2023-01-03T02:45:54.070Z,12.07
2023-01-03T02:48:40.092Z,12.77
2023-01-03T02:51:17.184Z,13.38
2023-01-03T02:53:51.177Z,12.95
2023-01-03T02:56:26.584Z,12.60
2023-01-03T02:59:02.549Z,11.82
2023-01-03T03:01:34.321Z,12.05
2023-01-03T03:04:07.151Z,12.82
2023-01-03T03:06:44.524Z,12.85
2023-01-03T03:09:13.475Z,12.68
2023-01-03T03:12:02.821Z,12.05
2023-01-03T03:14:39.645Z,13.18
2023-01-03T03:17:15.200Z,13.55
2023-01-03T03:20:06.456Z,15.00
2023-01-03T03:23:01.096Z,15.35
2023-01-03T03:25:35.012Z,14.48
2023-01-03T03:28:25.630Z,14.40
2023-01-03T03:31:00.516Z,16.27
2023-01-03T03:33:34.587Z,13.77
2023-01-03T03:36:12.549Z,12.80
2023-01-03T03:38:45.874Z,13.25
2023-01-03T03:41:45.841Z,13.65
2023-01-03T03:44:46.281Z,14.70
2023-01-03T03:47:39.289Z,14.02
2023-01-03T03:50:16.086Z,14.63
2023-01-03T03:52:50.996Z,15.10
2023-01-03T03:55:25.241Z,15.88
2023-01-03T03:58:01.218Z,16.10
2023-01-03T04:00:36.030Z,15.50
2023-01-03T04:03:08.808Z,15.68
2023-01-03T04:05:44.102Z,16.77
2023-01-03T04:08:14.339Z,16.20
2023-01-03T04:10:44.244Z,16.25
2023-01-03T04:13:13.305Z,15.68
2023-01-03T04:15:42.169Z,15.98
2023-01-03T04:18:11.001Z,16.25
2023-01-03T04:20:39.730Z,16.52
2023-01-03T04:23:08.505Z,16.27
2023-01-03T04:25:38.836Z,15.27
2023-01-03T04:28:07.815Z,15.65
2023-01-03T04:30:36.770Z,16.35
2023-01-03T04:33:06.213Z,15.15
2023-01-03T04:35:35.602Z,16.20
2023-01-03T04:38:05.032Z,16.60
2023-01-03T04:40:35.723Z,16.55
2023-01-03T04:43:23.833Z,17.42
2023-01-03T04:45:53.414Z,16.02
2023-01-03T04:48:22.379Z,16.40
2023-01-03T04:50:54.653Z,17.13
2023-01-03T04:53:24.556Z,15.13
2023-01-03T04:55:56.851Z,15.27
2023-01-03T04:58:27.718Z,15.27
2023-01-03T05:01:02.520Z,14.73
2023-01-03T05:03:32.265Z,13.75
2023-01-03T05:06:02.575Z,14.27
2023-01-03T05:08:31.888Z,15.13
2023-01-03T05:11:00.783Z,15.10
2023-01-03T05:13:31.181Z,14.80
2023-01-03T05:16:07.220Z,15.75
2023-01-03T05:18:37.203Z,14.40
2023-01-03T05:21:32.441Z,15.35
2023-01-03T05:24:18.707Z,15.52
2023-01-03T05:26:48.131Z,15.15
2023-01-03T05:29:22.138Z,15.95
2023-01-03T05:31:51.397Z,15.25
2023-01-03T05:34:20.626Z,15.45
2023-01-03T05:36:49.487Z,15.45
2023-01-03T05:39:18.405Z,15.65
2023-01-03T05:42:02.700Z,15.13
2023-01-03T05:44:36.829Z,17.20
2023-01-03T05:47:06.909Z,17.38
2023-01-03T05:49:35.823Z,16.15
2023-01-03T05:52:04.773Z,15.95
2023-01-03T05:54:33.571Z,18.50
2023-01-03T05:57:02.680Z,19.90
2023-01-03T05:59:32.852Z,19.67
2023-01-03T06:02:01.783Z,19.58
2023-01-03T06:04:30.850Z,18.75
2023-01-03T06:06:59.835Z,18.90
2023-01-03T06:09:28.712Z,19.17
2023-01-03T06:11:57.493Z,17.33
2023-01-03T06:14:26.415Z,16.52
2023-01-03T06:17:13.913Z,17.58
2023-01-03T06:19:42.979Z,15.50
2023-01-03T06:22:11.720Z,15.98
2023-01-03T06:24:40.609Z,13.23
2023-01-03T06:27:09.414Z,13.10
2023-01-03T06:29:38.245Z,12.90
2023-01-03T06:32:10.083Z,13.45
2023-01-03T06:34:39.641Z,12.13
2023-01-03T06:37:08.799Z,12.45
2023-01-03T06:39:37.622Z,12.88
2023-01-03T06:42:21.295Z,13.32
2023-01-03T06:45:10.564Z,12.57
2023-01-03T06:47:58.057Z,12.70
2023-01-03T06:50:44.331Z,13.27
2023-01-03T06:53:17.194Z,12.40
2023-01-03T06:55:54.558Z,12.70
2023-01-03T06:58:25.540Z,13.23
2023-01-03T07:00:56.250Z,12.57
2023-01-03T07:03:26.586Z,12.13
2023-01-03T07:05:55.547Z,12.88
2023-01-03T07:08:24.452Z,13.20
2023-01-03T07:10:53.369Z,13.43
2023-01-03T07:13:39.660Z,13.15
2023-01-03T07:16:14.334Z,12.07
2023-01-03T07:18:50.688Z,12.90
2023-01-03T07:21:24.713Z,11.90
2023-01-03T07:23:55.024Z,11.82
2023-01-03T07:26:25.607Z,11.50
2023-01-03T07:28:54.715Z,11.93
2023-01-03T07:31:24.023Z,11.60
2023-01-03T07:33:55.261Z,12.63
2023-01-03T07:36:24.655Z,11.70
2023-01-03T07:38:55.171Z,11.02
2023-01-03T07:41:44.766Z,11.48
2023-01-03T07:44:12.774Z,11.25
2023-01-03T07:46:41.826Z,11.50
2023-01-03T07:49:12.607Z,11.00
2023-01-03T07:51:41.715Z,11.02
2023-01-03T07:54:10.671Z,10.15
2023-01-03T07:56:39.598Z,9.90
2023-01-03T07:59:08.525Z,10.38
2023-01-03T08:01:37.499Z,9.95
2023-01-03T08:04:06.599Z,8.50
2023-01-03T08:06:36.762Z,7.82
2023-01-03T08:09:23.166Z,7.38
2023-01-03T08:12:09.534Z,8.15
2023-01-03T08:14:38.434Z,7.85
2023-01-03T08:17:08.085Z,7.65
2023-01-03T08:19:43.530Z,7.22
2023-01-03T08:22:15.856Z,7.10
2023-01-03T08:24:44.663Z,6.97
2023-01-03T08:27:13.500Z,7.15
2023-01-03T08:29:42.429Z,6.75
2023-01-03T08:32:11.936Z,6.15
2023-01-03T08:34:44.518Z,6.35
2023-01-03T08:37:18.121Z,6.35
2023-01-03T08:39:56.660Z,6.63
2023-01-03T08:42:27.392Z,4.85
2023-01-03T08:45:02.277Z,5.05
2023-01-03T08:47:31.964Z,4.45
2023-01-03T08:50:02.054Z,4.38
2023-01-03T08:52:35.293Z,4.97
2023-01-03T08:55:04.893Z,4.47
2023-01-03T08:57:34.281Z,4.15
2023-01-03T09:00:03.871Z,4.40
2023-01-03T09:02:36.902Z,4.70
2023-01-03T09:05:06.900Z,4.60
2023-01-03T09:07:37.189Z,4.53
2023-01-03T09:10:07.086Z,4.53
2023-01-03T09:12:36.016Z,4.45
2023-01-03T09:15:05.479Z,4.97
2023-01-03T09:17:34.871Z,4.30
2023-01-03T09:20:03.712Z,4.00
2023-01-03T09:22:32.546Z,4.57
2023-01-03T09:25:03.112Z,4.97
2023-01-03T09:27:32.151Z,4.22
2023-01-03T09:30:01.480Z,4.40
2023-01-03T09:32:30.747Z,4.03
2023-01-03T09:35:00.907Z,4.25
2023-01-03T09:37:30.121Z,4.18
2023-01-03T09:39:59.538Z,4.50
2023-01-03T09:42:48.293Z,4.72
2023-01-03T09:45:28.715Z,4.93
2023-01-03T09:47:58.142Z,6.70
2023-01-03T09:50:50.747Z,5.28
2023-01-03T09:53:43.666Z,4.88
2023-01-03T09:56:32.445Z,4.50
2023-01-03T09:59:29.562Z,4.50
2023-01-03T10:02:34.180Z,5.57
2023-01-03T10:05:27.193Z,5.40
2023-01-03T10:08:23.231Z,5.45
2023-01-03T10:11:03.886Z,6.47
2023-01-03T10:13:49.570Z,5.75
2023-01-03T10:16:33.782Z,6.25
2023-01-03T10:19:33.373Z,5.28
2023-01-03T10:22:11.482Z,5.03
2023-01-03T10:24:47.771Z,5.57
2023-01-03T10:27:21.735Z,5.13
2023-01-03T10:29:55.591Z,4.78
2023-01-03T10:32:54.142Z,5.65
2023-01-03T10:35:25.766Z,5.20
2023-01-03T10:37:57.169Z,5.20
2023-01-03T10:40:37.879Z,4.10
2023-01-03T10:43:16.302Z,4.30
2023-01-03T10:46:00.324Z,4.10
2023-01-03T10:48:59.951Z,5.47
2023-01-03T10:51:41.917Z,5.35
2023-01-03T10:54:23.067Z,6.05
2023-01-03T10:56:52.353Z,5.18
2023-01-03T10:59:26.757Z,5.10
2023-01-03T11:02:03.194Z,5.22
2023-01-03T11:04:34.870Z,5.30
2023-01-03T11:07:15.845Z,4.50
2023-01-03T11:09:51.854Z,4.40
2023-01-03T11:12:30.180Z,5.82
2023-01-03T11:15:01.189Z,5.85
2023-01-03T11:17:31.231Z,5.75
2023-01-03T11:20:01.608Z,6.43
2023-01-03T11:22:43.357Z,5.97
2023-01-03T11:25:39.263Z,5.40
2023-01-03T11:29:03.116Z,5.47
2023-01-03T11:31:52.792Z,5.82
2023-01-03T11:35:21.647Z,5.90
2023-01-03T11:37:49.559Z,6.15
2023-01-03T11:40:29.815Z,5.90
2023-01-03T11:43:13.472Z,6.15
2023-01-03T11:45:58.865Z,5.50
2023-01-03T11:49:01.512Z,5.63
2023-01-03T11:51:42.852Z,5.30
2023-01-03T11:54:38.418Z,4.80
2023-01-03T11:57:20.575Z,5.40
2023-01-03T12:00:04.028Z,4.97
2023-01-03T12:03:09.056Z,5.47
2023-01-03T12:05:47.415Z,5.57
2023-01-03T12:08:46.675Z,5.85
2023-01-03T12:11:47.546Z,5.40
2023-01-03T12:14:25.638Z,5.20
2023-01-03T12:17:03.224Z,5.13
2023-01-03T12:19:43.186Z,5.45
2023-01-03T12:22:26.507Z,5.18
2023-01-03T12:25:05.785Z,5.32
2023-01-03T12:27:42.856Z,6.35
2023-01-03T12:30:40.928Z,6.00
2023-01-03T12:33:27.443Z,5.30
2023-01-03T12:36:04.887Z,5.30
2023-01-03T12:38:42.817Z,5.10
2023-01-03T12:41:29.840Z,7.88
2023-01-03T12:44:09.297Z,5.25
2023-01-03T12:46:45.766Z,5.47
2023-01-03T12:49:21.143Z,13.27
2023-01-03T12:51:50.388Z,5.38
2023-01-03T12:54:35.242Z,5.03
2023-01-03T12:57:52.071Z,4.35
2023-01-03T13:00:34.771Z,4.78
2023-01-03T13:03:15.224Z,5.35
2023-01-03T13:05:50.488Z,4.65
2023-01-03T13:08:32.987Z,4.88
2023-01-03T13:11:08.306Z,4.82
2023-01-03T13:13:37.522Z,5.20
2023-01-03T13:16:45.109Z,5.70
2023-01-03T13:19:59.153Z,5.82
2023-01-03T13:22:52.030Z,4.85
2023-01-03T13:25:44.142Z,6.03
2023-01-03T13:28:34.385Z,5.85
2023-01-03T13:31:42.122Z,6.70
2023-01-03T13:34:35.279Z,7.05
2023-01-03T13:37:21.227Z,6.57
2023-01-03T13:40:34.705Z,7.68
2023-01-03T13:43:20.543Z,6.68
2023-01-03T13:46:53.308Z,7.05
2023-01-03T13:49:26.442Z,6.28
2023-01-03T13:51:57.931Z,5.63
2023-01-03T13:54:38.624Z,7.43
2023-01-03T13:57:31.196Z,6.53
2023-01-03T14:00:03.024Z,6.90
2023-01-03T14:03:32.211Z,6.40
2023-01-03T14:06:36.896Z,6.72
2023-01-03T14:09:55.675Z,7.07
2023-01-03T14:13:10.780Z,6.40
2023-01-03T14:15:39.636Z,6.53
2023-01-03T14:18:25.301Z,7.05
2023-01-03T14:20:57.336Z,6.57
2023-01-03T14:26:19.814Z,6.40
2023-01-03T14:28:51.285Z,6.28
2023-01-03T14:31:24.471Z,6.70
2023-01-03T14:34:01.917Z,6.38
2023-01-03T14:36:30.873Z,6.90
2023-01-03T14:39:02.532Z,7.70
2023-01-03T14:41:35.200Z,6.60
2023-01-03T14:44:07.320Z,6.20
2023-01-03T14:46:39.093Z,6.15
2023-01-03T14:49:26.676Z,6.72
2023-01-03T14:52:06.371Z,6.38
2023-01-03T14:54:37.185Z,6.15
2023-01-03T14:57:06.876Z,6.68
2023-01-03T14:59:36.577Z,6.65
2023-01-03T15:02:06.085Z,6.57
2023-01-03T15:04:44.202Z,6.38
2023-01-03T15:07:34.236Z,6.25
2023-01-03T15:10:18.877Z,6.25
2023-01-03T15:12:58.971Z,6.47
2023-01-03T15:15:41.603Z,5.57
2023-01-03T15:18:18.819Z,5.35
2023-01-03T15:20:55.197Z,5.95
2023-01-03T15:23:39.719Z,5.45
2023-01-03T15:26:22.180Z,5.03
2023-01-03T15:28:55.298Z,5.43
2023-01-03T15:31:37.271Z,5.68
2023-01-03T15:34:16.954Z,5.97
2023-01-03T15:36:55.814Z,6.00
2023-01-03T15:39:30.619Z,5.80
2023-01-03T15:42:43.997Z,5.38
2023-01-03T15:45:18.423Z,5.47
2023-01-03T15:47:49.106Z,6.47
2023-01-03T15:50:20.161Z,8.18
2023-01-03T15:52:50.901Z,6.85
2023-01-03T15:55:19.994Z,6.90
2023-01-03T15:57:53.847Z,6.50
2023-01-03T16:00:26.219Z,6.35
2023-01-03T16:02:55.201Z,5.63
2023-01-03T16:05:24.254Z,5.80
2023-01-03T16:07:54.424Z,6.32
2023-01-03T16:10:23.316Z,6.97
2023-01-03T16:12:52.074Z,6.35
2023-01-03T16:15:23.805Z,7.05
2023-01-03T16:17:53.525Z,8.02
2023-01-03T16:20:22.369Z,9.25
2023-01-03T16:23:00.987Z,8.68
2023-01-03T16:25:31.211Z,7.82
2023-01-03T16:28:00.144Z,11.80
2023-01-03T16:30:29.026Z,8.52
2023-01-03T16:32:57.874Z,8.45
2023-01-03T16:35:26.611Z,7.18
2023-01-03T16:37:56.818Z,7.88
2023-01-03T16:40:25.577Z,7.88
2023-01-03T16:42:54.396Z,7.63
2023-01-03T16:45:23.589Z,7.65
2023-01-03T16:47:54.935Z,8.02
2023-01-03T16:50:24.422Z,7.43
2023-01-03T16:52:57.729Z,8.18
2023-01-03T16:55:30.032Z,7.70
2023-01-03T16:57:59.775Z,7.20
2023-01-03T17:00:31.351Z,7.65
2023-01-03T17:03:01.356Z,7.18
2023-01-03T17:05:36.255Z,7.82
2023-01-03T17:08:18.628Z,7.70
2023-01-03T17:10:50.239Z,7.88
2023-01-03T17:13:31.198Z,8.43
2023-01-03T17:16:02.104Z,7.78
2023-01-03T17:18:37.159Z,8.27
2023-01-03T17:21:16.561Z,8.30
2023-01-03T17:23:48.016Z,8.55
2023-01-03T17:26:21.313Z,8.07
2023-01-03T17:28:51.772Z,7.97
2023-01-03T17:31:23.730Z,8.77
2023-01-03T17:33:53.851Z,8.18
2023-01-03T17:36:26.777Z,7.80
2023-01-03T17:39:01.999Z,8.45
2023-01-03T17:41:52.070Z,8.43
2023-01-03T17:44:20.956Z,8.40
2023-01-03T17:47:07.671Z,8.63
2023-01-03T17:49:36.814Z,8.38
2023-01-03T17:52:08.124Z,8.75
2023-01-03T17:54:41.911Z,8.32
2023-01-03T17:57:14.359Z,8.95
2023-01-03T17:59:43.433Z,7.95
2023-01-03T18:02:20.268Z,8.02
2023-01-03T18:05:15.900Z,8.20
2023-01-03T18:07:40.908Z,8.65
2023-01-03T18:10:18.518Z,8.98
2023-01-03T18:12:47.508Z,8.93
2023-01-03T18:15:18.391Z,8.75
2023-01-03T18:17:48.547Z,9.20
2023-01-03T18:20:19.459Z,8.90
2023-01-03T18:22:49.697Z,8.93
2023-01-03T18:25:25.036Z,8.82
2023-01-03T18:27:58.821Z,8.40
2023-01-03T18:30:27.747Z,9.40
2023-01-03T18:32:56.495Z,8.73
2023-01-03T18:35:30.964Z,8.65
2023-01-03T18:38:04.678Z,8.77
2023-01-03T18:40:34.988Z,8.80
2023-01-03T18:43:13.707Z,8.25
2023-01-03T18:45:43.863Z,9.35
2023-01-03T18:48:17.350Z,9.25
2023-01-03T18:50:55.637Z,9.25
2023-01-03T18:53:31.350Z,10.73
2023-01-03T18:56:03.163Z,9.43
2023-01-03T18:58:36.324Z,8.75
2023-01-03T19:01:07.337Z,9.80
2023-01-03T19:03:38.828Z,10.13
2023-01-03T19:06:19.049Z,9.75
2023-01-03T19:08:48.979Z,10.00
2023-01-03T19:11:26.621Z,11.63
2023-01-03T19:14:00.075Z,9.50
2023-01-03T19:16:31.942Z,9.88
2023-01-03T19:19:01.649Z,10.20
2023-01-03T19:21:35.266Z,9.90
2023-01-03T19:24:08.091Z,10.35
2023-01-03T19:26:44.865Z,10.20
2023-01-03T19:29:22.507Z,12.00
2023-01-03T19:31:54.946Z,10.55
2023-01-03T19:34:28.980Z,11.48
2023-01-03T19:36:59.935Z,11.00
2023-01-03T19:39:36.806Z,12.05
2023-01-03T19:42:32.571Z,12.68
2023-01-03T19:45:03.428Z,12.10
2023-01-03T19:47:32.522Z,15.30
2023-01-03T19:50:16.163Z,14.32
2023-01-03T19:52:46.900Z,12.82
2023-01-03T19:55:18.041Z,13.43
2023-01-03T19:57:51.901Z,12.90
2023-01-03T20:00:25.130Z,12.82
2023-01-03T20:03:04.336Z,13.48
2023-01-03T20:05:36.513Z,13.43
2023-01-03T20:08:12.366Z,13.38
2023-01-03T20:10:50.307Z,13.98
2023-01-03T20:13:23.432Z,14.05
2023-01-03T20:15:55.781Z,14.13
2023-01-03T20:18:29.327Z,15.00
2023-01-03T20:21:01.822Z,14.25
2023-01-03T20:23:37.184Z,15.85
2023-01-03T20:26:07.250Z,15.52
2023-01-03T20:28:38.066Z,15.90
2023-01-03T20:31:13.984Z,16.25
2023-01-03T20:33:53.344Z,16.42
2023-01-03T20:36:26.906Z,17.23
2023-01-03T20:39:02.657Z,16.92
2023-01-03T20:41:37.411Z,17.45
2023-01-03T20:44:08.595Z,23.17
2023-01-03T20:46:39.272Z,20.40
2023-01-03T20:49:17.522Z,20.27
2023-01-03T20:51:46.848Z,18.40
2023-01-03T20:54:15.928Z,18.15
2023-01-03T20:56:45.812Z,18.77
2023-01-03T20:59:20.601Z,17.17
2023-01-03T21:01:50.267Z,17.63
2023-01-03T21:04:19.232Z,16.85
2023-01-03T21:06:48.909Z,16.83
2023-01-03T21:09:17.708Z,18.52
2023-01-03T21:11:47.234Z,17.70
2023-01-03T21:14:17.621Z,17.05
2023-01-03T21:16:47.814Z,18.00
2023-01-03T21:19:20.188Z,18.85
2023-01-03T21:21:51.832Z,17.35
2023-01-03T21:24:25.041Z,18.50
2023-01-03T21:26:53.896Z,17.90
2023-01-03T21:29:24.063Z,18.42
2023-01-03T21:31:52.932Z,17.65
2023-01-03T21:34:23.163Z,17.10
2023-01-03T21:36:51.914Z,17.05
2023-01-03T21:39:20.689Z,16.42
2023-01-03T21:42:07.246Z,16.75
2023-01-03T21:44:37.442Z,16.27
2023-01-03T21:47:06.536Z,17.13
2023-01-03T21:49:35.303Z,16.98
2023-01-03T21:52:04.201Z,16.48
2023-01-03T21:54:33.245Z,16.08
2023-01-03T21:57:02.010Z,15.95
2023-01-03T21:59:32.660Z,16.00
2023-01-03T22:02:20.352Z,16.13
2023-01-03T22:04:49.155Z,15.85
2023-01-03T22:07:18.726Z,17.05
2023-01-03T22:10:05.085Z,15.88
2023-01-03T22:12:33.990Z,15.70
2023-01-03T22:15:02.707Z,15.77
2023-01-03T22:17:36.620Z,16.38
2023-01-03T22:20:07.504Z,24.27
2023-01-03T22:22:36.658Z,17.90
2023-01-03T22:25:06.435Z,19.73
2023-01-03T22:27:35.554Z,16.67
2023-01-03T22:30:05.280Z,16.83
2023-01-03T22:32:35.793Z,17.50
2023-01-03T22:35:04.864Z,17.95
2023-01-03T22:37:33.675Z,16.70
2023-01-03T22:40:02.485Z,16.48
2023-01-03T22:42:31.378Z,16.38
2023-01-03T22:45:00.352Z,17.88
2023-01-03T22:47:29.471Z,17.58
2023-01-03T22:49:59.798Z,17.10
2023-01-03T22:52:28.843Z,16.77
2023-01-03T22:54:57.632Z,19.95
2023-01-03T22:57:26.581Z,17.35
2023-01-03T22:59:55.422Z,17.90
2023-01-03T23:02:28.803Z,18.42
2023-01-03T23:04:59.839Z,18.45
2023-01-03T23:07:28.863Z,18.67
2023-01-03T23:09:57.971Z,17.02
2023-01-03T23:12:44.320Z,16.88
2023-01-03T23:15:13.286Z,16.45
2023-01-03T23:17:57.259Z,15.85
2023-01-03T23:20:31.022Z,15.68
2023-01-03T23:23:03.218Z,15.02
2023-01-03T23:25:34.093Z,16.30
2023-01-03T23:28:02.903Z,16.35
2023-01-03T23:30:31.668Z,15.40
2023-01-03T23:33:00.434Z,15.05
2023-01-03T23:35:30.557Z,14.90
2023-01-03T23:37:59.549Z,14.98
2023-01-03T23:40:28.264Z,16.58
2023-01-03T23:42:57.138Z,14.60
2023-01-03T23:45:25.984Z,13.70
2023-01-03T23:47:54.808Z,14.25
2023-01-03T23:50:23.780Z,13.88
2023-01-03T23:52:54.105Z,14.32
2023-01-03T23:55:22.983Z,14.00
2023-01-03T23:57:51.865Z,14.60
